Hlavní strana
METAR-TAF:

METAR-TAF

Letiště :

Skövde, Švédsko

zeměpisná šířka: 58-27N, zeměpisná délka: 013-58E, výška: 98 m

Aktuální stav počasí

Zpráva byla vytvořena před 29 hodinami a 46 minutami, v 15:50 UTC
Jihozápadní vítr 7 kt
Teplota 19°C
Vlhkost vzduchu 52%
Tlak 1014 hPa
Viditelnost 10 km a více

METAR: ESGR 171550Z AUTO 23007KT 9999 FEW200/// 19/09 Q1014

Čas: 23:36 (21:36 UTC)


TAF: chybějící

Stav a předpovědi počasí z více než 4 000 letišť (zprávy METAR a TAF).

Červené a žluté tečky na mapě představují dostupné meteorologické stanice.

Když kurzor umístíte na tečku, zobrazí se název stanice.

Pak kliknutím zobrazíte stav a předpověď počasí.

Chcete-li změnit mapu, kliknutím na zelené tlačítko se znaménkem +mapu přiblížíte, kliknutím na zelené tlačítko se znaménkem – mapu oddálíte a kliknutím na zelené šipky přejdete na sousední mapy.


METAR-TAF: